createdAt,value
2019-01-05T00:00:41.263Z,91.47
2019-01-05T00:01:43.158Z,90.47
2019-01-05T00:02:43.167Z,90.42
2019-01-05T00:03:43.158Z,91.37
2019-01-05T00:04:43.170Z,91.41
2019-01-05T00:05:43.159Z,90.47
2019-01-05T00:06:43.155Z,90.32
2019-01-05T00:07:43.168Z,90.32
2019-01-05T00:08:44.214Z,90.42
2019-01-05T00:09:42.682Z,91.16
2019-01-05T00:10:42.658Z,91.20
2019-01-05T00:11:42.660Z,90.99
2019-01-05T00:12:42.655Z,91.72
2019-01-05T00:13:42.656Z,91.68
2019-01-05T00:14:42.670Z,91.79
2019-01-05T00:15:42.657Z,91.72
2019-01-05T00:16:42.668Z,91.94
2019-01-05T00:17:42.655Z,92.35
2019-01-05T00:18:42.654Z,92.14
2019-01-05T00:19:42.673Z,92.25
2019-01-05T00:20:42.656Z,92.00
2019-01-05T00:21:42.675Z,92.57
2019-01-05T00:22:43.886Z,92.88
2019-01-05T00:23:42.667Z,93.09
2019-01-05T00:24:42.669Z,93.15
2019-01-05T00:25:42.660Z,93.40
2019-01-05T00:26:42.664Z,93.40
2019-01-05T00:27:42.664Z,94.10
2019-01-05T00:28:42.654Z,94.45
2019-01-05T00:29:42.656Z,94.77
2019-01-05T00:30:42.668Z,93.72
2019-01-05T00:31:42.657Z,93.93
2019-01-05T00:32:40.916Z,94.56
2019-01-05T00:33:43.060Z,93.93
2019-01-05T00:34:42.653Z,94.35
2019-01-05T00:35:42.669Z,94.77
2019-01-05T00:36:42.654Z,95.08
2019-01-05T00:37:42.654Z,95.29
2019-01-05T00:38:42.652Z,95.29
2019-01-05T00:39:42.664Z,94.77
2019-01-05T00:40:42.668Z,94.67
2019-01-05T00:41:42.653Z,94.98
2019-01-05T00:42:42.652Z,95.29
2019-01-05T00:43:42.653Z,95.40
2019-01-05T00:44:42.667Z,95.82
2019-01-05T00:45:40.789Z,96.34
2019-01-05T00:46:42.653Z,96.13
2019-01-05T00:47:42.652Z,96.34
2019-01-05T00:48:42.657Z,96.77
2019-01-05T00:49:42.655Z,96.45
2019-01-05T00:50:42.668Z,96.13
2019-01-05T00:51:42.649Z,96.87
2019-01-05T00:52:42.652Z,97.50
2019-01-05T00:53:42.649Z,97.50
2019-01-05T00:54:42.655Z,97.60
2019-01-05T00:55:42.665Z,97.29
2019-01-05T00:56:42.151Z,97.39
2019-01-05T00:57:42.151Z,97.29
2019-01-05T00:58:40.631Z,97.29
2019-01-05T00:59:42.153Z,97.18
2019-01-05T01:00:42.164Z,97.29
2019-01-05T01:01:42.150Z,97.18
2019-01-05T01:02:42.168Z,97.39
2019-01-05T01:03:42.154Z,97.08
2019-01-05T01:04:42.148Z,96.97
2019-01-05T01:05:42.175Z,97.50
2019-01-05T01:06:42.163Z,97.29
2019-01-05T01:07:42.151Z,97.39
2019-01-05T01:08:42.151Z,97.71
2019-01-05T01:09:42.151Z,97.92
2019-01-05T01:10:42.161Z,98.17
2019-01-05T01:11:40.507Z,97.96
2019-01-05T01:12:42.146Z,98.02
2019-01-05T01:13:42.169Z,97.60
2019-01-05T01:14:42.150Z,97.81
2019-01-05T01:15:42.167Z,97.60
2019-01-05T01:16:42.148Z,97.60
2019-01-05T01:17:42.152Z,98.17
2019-01-05T01:18:42.149Z,97.64
2019-01-05T01:19:42.146Z,98.23
2019-01-05T01:20:42.162Z,98.23
2019-01-05T01:21:42.150Z,98.13
2019-01-05T01:22:42.146Z,98.17
2019-01-05T01:23:42.160Z,98.02
2019-01-05T01:24:42.151Z,98.34
2019-01-05T01:25:42.160Z,98.23
2019-01-05T01:26:42.145Z,98.13
2019-01-05T01:27:42.165Z,98.23
2019-01-05T01:28:42.146Z,97.92
2019-01-05T01:29:42.164Z,98.17
2019-01-05T01:30:42.147Z,98.55
2019-01-05T01:31:42.160Z,98.86
2019-01-05T01:32:42.148Z,98.80
2019-01-05T01:33:42.146Z,98.69
2019-01-05T01:34:42.155Z,98.59
2019-01-05T01:35:42.144Z,98.38
2019-01-05T01:36:42.158Z,98.59
2019-01-05T01:37:42.144Z,98.59
2019-01-05T01:38:42.148Z,99.01
2019-01-05T01:39:42.146Z,98.65
2019-01-05T01:40:42.170Z,98.91
2019-01-05T01:41:42.161Z,98.91
2019-01-05T01:42:42.146Z,99.01
2019-01-05T01:43:41.666Z,99.22
2019-01-05T01:44:41.643Z,98.80
2019-01-05T01:45:41.643Z,98.80
2019-01-05T01:46:41.657Z,98.91
2019-01-05T01:47:41.649Z,99.33
2019-01-05T01:48:41.645Z,98.80
2019-01-05T01:49:41.653Z,99.01
2019-01-05T01:50:41.642Z,98.86
2019-01-05T01:51:41.657Z,98.91
2019-01-05T01:52:41.641Z,98.86
2019-01-05T01:53:41.646Z,98.91
2019-01-05T01:54:41.641Z,98.59
2019-01-05T01:55:41.641Z,98.80
2019-01-05T01:56:40.020Z,98.91
2019-01-05T01:57:41.644Z,98.69
2019-01-05T01:58:41.642Z,98.80
2019-01-05T01:59:41.641Z,98.80
2019-01-05T02:00:41.645Z,98.80
2019-01-05T02:01:41.658Z,98.80
2019-01-05T02:02:41.649Z,98.80
2019-01-05T02:03:41.652Z,98.80
2019-01-05T02:04:41.643Z,98.80
2019-01-05T02:05:41.641Z,98.91
2019-01-05T02:06:41.653Z,98.91
2019-01-05T02:07:41.640Z,98.80
2019-01-05T02:08:41.642Z,98.91
2019-01-05T02:09:41.642Z,98.80
2019-01-05T02:10:41.641Z,98.91
2019-01-05T02:11:41.657Z,98.80
2019-01-05T02:12:41.637Z,98.80
2019-01-05T02:13:41.640Z,98.91
2019-01-05T02:14:41.641Z,98.91
2019-01-05T02:15:42.645Z,98.80
2019-01-05T02:16:41.655Z,98.80
2019-01-05T02:17:41.651Z,98.49
2019-01-05T02:18:41.637Z,98.59
2019-01-05T02:19:41.638Z,98.80
2019-01-05T02:20:41.644Z,98.49
2019-01-05T02:21:41.654Z,98.69
2019-01-05T02:22:39.718Z,99.11
2019-01-05T02:23:41.640Z,98.80
2019-01-05T02:24:41.637Z,99.11
2019-01-05T02:25:41.641Z,99.11
2019-01-05T02:26:41.660Z,99.11
2019-01-05T02:27:41.639Z,99.11
2019-01-05T02:28:41.637Z,99.11
2019-01-05T02:29:41.144Z,98.91
2019-01-05T02:30:41.143Z,98.91
2019-01-05T02:31:41.158Z,99.01
2019-01-05T02:32:41.154Z,99.01
2019-01-05T02:33:41.139Z,99.01
2019-01-05T02:34:41.143Z,99.11
2019-01-05T02:35:39.583Z,99.01
2019-01-05T02:36:41.135Z,99.01
2019-01-05T02:37:41.166Z,99.22
2019-01-05T02:38:41.139Z,99.01
2019-01-05T02:39:41.141Z,99.22
2019-01-05T02:40:41.135Z,99.11
2019-01-05T02:41:41.140Z,99.11
2019-01-05T02:42:41.156Z,99.01
2019-01-05T02:43:41.136Z,98.80
2019-01-05T02:44:41.156Z,98.91
2019-01-05T02:45:41.137Z,98.91
2019-01-05T02:46:41.139Z,98.91
2019-01-05T02:47:41.149Z,99.11
2019-01-05T02:48:39.433Z,98.91
2019-01-05T02:49:41.135Z,99.01
2019-01-05T02:50:41.151Z,99.43
2019-01-05T02:51:41.136Z,99.11
2019-01-05T02:52:41.149Z,98.80
2019-01-05T02:53:41.137Z,98.91
2019-01-05T02:54:41.136Z,99.11
2019-01-05T02:55:41.136Z,98.91
2019-01-05T02:56:41.135Z,99.01
2019-01-05T02:57:41.153Z,98.91
2019-01-05T02:58:41.138Z,99.11
2019-01-05T02:59:41.131Z,99.01
2019-01-05T03:00:41.145Z,99.01
2019-01-05T03:01:41.140Z,99.54
2019-01-05T03:02:41.153Z,99.22
2019-01-05T03:03:41.134Z,99.64
2019-01-05T03:04:41.137Z,99.64
2019-01-05T03:05:41.132Z,99.33
2019-01-05T03:06:41.132Z,99.43
2019-01-05T03:07:41.148Z,99.64
2019-01-05T03:08:41.136Z,99.64
2019-01-05T03:09:41.148Z,99.74
2019-01-05T03:10:41.134Z,99.64
2019-01-05T03:11:41.134Z,99.64
2019-01-05T03:12:41.149Z,99.54
2019-01-05T03:13:41.132Z,99.64
2019-01-05T03:14:39.161Z,99.64
2019-01-05T03:15:41.131Z,99.64
2019-01-05T03:16:40.632Z,99.64
2019-01-05T03:17:40.648Z,99.64
2019-01-05T03:18:40.633Z,99.43
2019-01-05T03:19:40.630Z,99.85
2019-01-05T03:20:40.630Z,99.85
2019-01-05T03:21:40.636Z,99.38
2019-01-05T03:22:40.651Z,99.54
2019-01-05T03:23:40.629Z,99.64
2019-01-05T03:24:40.649Z,99.74
2019-01-05T03:25:40.632Z,99.43
2019-01-05T03:26:40.637Z,99.54
2019-01-05T03:27:40.657Z,99.43
2019-01-05T03:28:40.642Z,99.80
2019-01-05T03:29:41.631Z,99.64
2019-01-05T03:30:40.657Z,99.54
2019-01-05T03:31:40.636Z,99.49
2019-01-05T03:32:40.647Z,99.70
2019-01-05T03:33:40.630Z,99.18
2019-01-05T03:34:40.661Z,99.85
2019-01-05T03:35:40.630Z,99.64
2019-01-05T03:36:40.629Z,99.18
2019-01-05T03:37:40.646Z,99.74
2019-01-05T03:38:40.632Z,99.60
2019-01-05T03:39:40.629Z,99.70
2019-01-05T03:40:40.630Z,99.70
2019-01-05T03:41:40.630Z,99.70
2019-01-05T03:42:40.647Z,99.70
2019-01-05T03:43:40.639Z,99.80
2019-01-05T03:44:40.631Z,99.60
2019-01-05T03:45:40.647Z,99.91
2019-01-05T03:46:40.627Z,99.99
2019-01-05T03:47:40.640Z,99.91
2019-01-05T03:48:40.626Z,99.91
2019-01-05T03:49:40.630Z,99.80
2019-01-05T03:50:40.626Z,99.99
2019-01-05T03:51:40.626Z,99.91
2019-01-05T03:52:40.646Z,99.91
2019-01-05T03:53:40.636Z,99.96
2019-01-05T03:54:40.629Z,99.91
2019-01-05T03:55:40.632Z,99.70
2019-01-05T03:56:40.626Z,99.74
2019-01-05T03:57:40.638Z,99.91
2019-01-05T03:58:40.643Z,99.91
2019-01-05T03:59:40.626Z,99.91
2019-01-05T04:00:40.625Z,99.70
2019-01-05T04:01:40.624Z,99.91
2019-01-05T04:02:40.125Z,99.49
2019-01-05T04:03:40.140Z,99.70
2019-01-05T04:04:40.142Z,99.70
2019-01-05T04:05:40.128Z,99.99
2019-01-05T04:06:40.124Z,99.49
2019-01-05T04:07:40.126Z,99.74
2019-01-05T04:08:40.143Z,99.99
2019-01-05T04:09:40.125Z,99.49
2019-01-05T04:10:40.127Z,99.96
2019-01-05T04:11:40.122Z,99.70
2019-01-05T04:12:40.146Z,99.60
2019-01-05T04:13:40.134Z,99.91
2019-01-05T04:14:40.121Z,99.70
2019-01-05T04:15:40.122Z,99.91
2019-01-05T04:16:40.126Z,99.91
2019-01-05T04:17:40.121Z,99.91
2019-01-05T04:18:40.140Z,99.99
2019-01-05T04:19:40.124Z,99.91
2019-01-05T04:20:40.122Z,99.99
2019-01-05T04:21:40.124Z,99.99
2019-01-05T04:22:40.141Z,99.99
2019-01-05T04:23:40.138Z,99.99
2019-01-05T04:24:40.129Z,99.99
2019-01-05T04:25:39.965Z,99.91
2019-01-05T04:26:40.126Z,99.99
2019-01-05T04:27:40.120Z,99.99
2019-01-05T04:28:40.135Z,99.99
2019-01-05T04:29:40.118Z,99.91
2019-01-05T04:30:40.121Z,99.99
2019-01-05T04:31:40.123Z,99.99
2019-01-05T04:32:40.131Z,99.99
2019-01-05T04:33:40.133Z,99.99
2019-01-05T04:34:40.121Z,99.99
2019-01-05T04:35:40.121Z,99.99
2019-01-05T04:36:40.130Z,99.99
2019-01-05T04:37:40.131Z,99.99
2019-01-05T04:38:40.134Z,99.99
2019-01-05T04:39:40.120Z,99.99
2019-01-05T04:40:40.121Z,99.99
2019-01-05T04:41:40.118Z,99.99
2019-01-05T04:42:40.122Z,99.99
2019-01-05T04:43:40.130Z,99.99
2019-01-05T04:44:40.118Z,99.99
2019-01-05T04:45:38.161Z,99.99
2019-01-05T04:46:40.131Z,99.99
2019-01-05T04:47:40.122Z,99.99
2019-01-05T04:48:40.117Z,99.99
2019-01-05T04:49:39.617Z,99.99
2019-01-05T04:50:39.636Z,99.99
2019-01-05T04:51:39.631Z,99.99
2019-01-05T04:52:39.621Z,99.91
2019-01-05T04:53:39.629Z,99.99
2019-01-05T04:54:39.615Z,99.99
2019-01-05T04:55:39.628Z,99.91
2019-01-05T04:56:39.633Z,99.91
2019-01-05T04:57:39.619Z,99.91
2019-01-05T04:58:38.018Z,99.99
2019-01-05T04:59:39.616Z,99.99
2019-01-05T05:00:39.615Z,99.99
2019-01-05T05:01:39.632Z,99.99
2019-01-05T05:02:39.619Z,99.91
2019-01-05T05:03:39.619Z,99.99
2019-01-05T05:04:39.614Z,99.99
2019-01-05T05:05:39.616Z,99.99
2019-01-05T05:06:39.618Z,99.99
2019-01-05T05:07:39.642Z,99.99
2019-01-05T05:08:39.614Z,99.99
2019-01-05T05:09:39.627Z,99.99
2019-01-05T05:10:39.616Z,99.99
2019-01-05T05:11:37.873Z,99.99
2019-01-05T05:12:39.627Z,99.99
2019-01-05T05:13:39.614Z,99.99
2019-01-05T05:14:39.612Z,99.99
2019-01-05T05:15:39.613Z,99.99
2019-01-05T05:16:39.615Z,99.99
2019-01-05T05:17:39.627Z,99.99
2019-01-05T05:18:39.613Z,99.99
2019-01-05T05:19:39.616Z,99.99
2019-01-05T05:20:39.617Z,99.99
2019-01-05T05:21:39.612Z,99.91
2019-01-05T05:22:39.629Z,99.91
2019-01-05T05:23:39.613Z,99.80
2019-01-05T05:24:39.612Z,99.80
2019-01-05T05:25:39.618Z,99.70
2019-01-05T05:26:39.611Z,99.70
2019-01-05T05:27:39.630Z,99.91
2019-01-05T05:28:39.613Z,99.99
2019-01-05T05:29:39.612Z,99.91
2019-01-05T05:30:39.613Z,99.91
2019-01-05T05:31:39.643Z,99.91
2019-01-05T05:32:39.629Z,99.80
2019-01-05T05:33:39.616Z,99.91
2019-01-05T05:34:39.614Z,99.99
2019-01-05T05:35:39.111Z,99.99
2019-01-05T05:36:39.113Z,99.99
2019-01-05T05:37:37.605Z,99.99
2019-01-05T05:38:39.114Z,99.99
2019-01-05T05:39:39.109Z,99.99
2019-01-05T05:40:39.109Z,99.99
2019-01-05T05:41:39.111Z,99.99
2019-01-05T05:42:39.131Z,99.91
2019-01-05T05:43:39.113Z,99.99
2019-01-05T05:44:39.110Z,99.99
2019-01-05T05:45:39.118Z,99.91
2019-01-05T05:46:39.111Z,99.99
2019-01-05T05:47:39.126Z,99.99
2019-01-05T05:48:39.108Z,99.99
2019-01-05T05:49:39.109Z,99.99
2019-01-05T05:50:39.111Z,99.99
2019-01-05T05:51:39.108Z,99.99
2019-01-05T05:52:39.127Z,99.99
2019-01-05T05:53:39.117Z,99.99
2019-01-05T05:54:39.112Z,99.99
2019-01-05T05:55:39.111Z,99.99
2019-01-05T05:56:39.134Z,99.99
2019-01-05T05:57:39.109Z,99.99
2019-01-05T05:58:39.122Z,99.91
2019-01-05T05:59:39.112Z,99.99
2019-01-05T06:00:39.129Z,99.99
2019-01-05T06:01:39.106Z,99.97
2019-01-05T06:02:39.109Z,99.91
2019-01-05T06:03:39.121Z,99.91
2019-01-05T06:04:39.120Z,99.91
2019-01-05T06:05:39.107Z,99.97
2019-01-05T06:06:39.110Z,99.91
2019-01-05T06:07:39.109Z,99.99
2019-01-05T06:08:39.123Z,99.97
2019-01-05T06:09:39.109Z,99.97
2019-01-05T06:10:39.106Z,99.99
2019-01-05T06:11:39.105Z,99.99
2019-01-05T06:12:39.105Z,99.99
2019-01-05T06:13:39.118Z,99.99
2019-01-05T06:14:39.107Z,99.99
2019-01-05T06:15:39.104Z,99.99
2019-01-05T06:16:39.116Z,99.99
2019-01-05T06:17:39.107Z,99.99
2019-01-05T06:18:39.122Z,99.99
2019-01-05T06:19:39.105Z,99.99
2019-01-05T06:20:38.115Z,99.99
2019-01-05T06:21:38.606Z,99.99
2019-01-05T06:22:37.616Z,99.99
2019-01-05T06:23:38.620Z,99.99
2019-01-05T06:24:38.608Z,99.99
2019-01-05T06:25:38.604Z,99.99
2019-01-05T06:26:38.606Z,99.99
2019-01-05T06:27:38.612Z,99.99
2019-01-05T06:28:38.616Z,99.99
2019-01-05T06:29:38.613Z,99.99
2019-01-05T06:30:38.606Z,99.99
2019-01-05T06:31:38.603Z,99.99
2019-01-05T06:32:38.607Z,99.99
2019-01-05T06:33:38.621Z,99.99
2019-01-05T06:34:38.606Z,99.99
2019-01-05T06:35:36.955Z,99.99
2019-01-05T06:36:38.603Z,99.99
2019-01-05T06:37:38.624Z,99.99
2019-01-05T06:38:38.616Z,99.99
2019-01-05T06:39:38.601Z,99.99
2019-01-05T06:40:38.604Z,99.99
2019-01-05T06:41:38.642Z,99.99
2019-01-05T06:42:38.607Z,99.99
2019-01-05T06:43:38.604Z,99.99
2019-01-05T06:44:38.605Z,99.99
2019-01-05T06:45:38.604Z,99.99
2019-01-05T06:46:38.619Z,99.99
2019-01-05T06:47:38.601Z,99.99
2019-01-05T06:48:36.815Z,99.99
2019-01-05T06:49:38.599Z,99.99
2019-01-05T06:50:38.601Z,99.99
2019-01-05T06:51:38.616Z,99.99
2019-01-05T06:52:38.603Z,99.99
2019-01-05T06:53:38.600Z,99.99
2019-01-05T06:54:38.599Z,99.99
2019-01-05T06:55:38.618Z,99.99
2019-01-05T06:56:38.614Z,99.99
2019-01-05T06:57:38.603Z,99.99
2019-01-05T06:58:38.601Z,99.99
2019-01-05T06:59:38.599Z,99.99
2019-01-05T07:00:38.614Z,99.99
2019-01-05T07:01:36.676Z,99.99
2019-01-05T07:02:38.617Z,99.99
2019-01-05T07:03:38.609Z,99.99
2019-01-05T07:04:38.598Z,99.99
2019-01-05T07:05:38.600Z,99.99
2019-01-05T07:06:38.600Z,99.99
2019-01-05T07:07:38.112Z,99.99
2019-01-05T07:08:38.102Z,99.99
2019-01-05T07:09:38.097Z,99.99
2019-01-05T07:10:38.098Z,99.99
2019-01-05T07:11:38.119Z,99.99
2019-01-05T07:12:38.114Z,99.99
2019-01-05T07:13:38.100Z,99.99
2019-01-05T07:14:38.111Z,99.99
2019-01-05T07:15:38.097Z,99.99
2019-01-05T07:16:38.106Z,99.99
2019-01-05T07:17:38.114Z,99.99
2019-01-05T07:18:38.121Z,99.99
2019-01-05T07:19:38.095Z,99.99
2019-01-05T07:20:38.096Z,99.99
2019-01-05T07:21:38.113Z,99.99
2019-01-05T07:22:38.112Z,99.99
2019-01-05T07:23:38.101Z,99.99
2019-01-05T07:24:38.099Z,99.99
2019-01-05T07:25:38.095Z,99.99
2019-01-05T07:26:38.108Z,99.99
2019-01-05T07:27:36.401Z,99.99
2019-01-05T07:28:38.098Z,99.99
2019-01-05T07:29:38.100Z,99.99
2019-01-05T07:30:38.099Z,99.99
2019-01-05T07:31:38.112Z,99.99
2019-01-05T07:32:38.110Z,99.99
2019-01-05T07:33:38.094Z,99.99
2019-01-05T07:34:38.095Z,99.99
2019-01-05T07:35:38.096Z,99.99
2019-01-05T07:36:38.108Z,99.99
2019-01-05T07:37:38.108Z,99.99
2019-01-05T07:38:38.096Z,99.99
2019-01-05T07:39:38.094Z,99.99
2019-01-05T07:40:36.246Z,99.99
2019-01-05T07:41:38.094Z,99.99
2019-01-05T07:42:38.110Z,99.99
2019-01-05T07:43:38.098Z,99.99
2019-01-05T07:44:38.099Z,99.99
2019-01-05T07:45:38.100Z,99.99
2019-01-05T07:46:38.121Z,99.99
2019-01-05T07:47:38.136Z,99.99
2019-01-05T07:48:38.095Z,99.99
2019-01-05T07:49:38.092Z,99.99
2019-01-05T07:50:38.093Z,99.99
2019-01-05T07:51:38.095Z,99.99
2019-01-05T07:52:38.103Z,99.99
2019-01-05T07:53:37.613Z,99.99
2019-01-05T07:54:37.592Z,99.99
2019-01-05T07:55:37.591Z,99.99
2019-01-05T07:56:37.651Z,99.99
2019-01-05T07:57:37.593Z,99.99
2019-01-05T07:58:37.619Z,99.99
2019-01-05T07:59:37.594Z,99.99
2019-01-05T08:00:37.604Z,99.99
2019-01-05T08:01:37.601Z,99.99
2019-01-05T08:02:37.604Z,99.99
2019-01-05T08:03:37.604Z,99.99
2019-01-05T08:04:37.590Z,99.99
2019-01-05T08:05:37.592Z,99.99
2019-01-05T08:06:37.593Z,99.99
2019-01-05T08:07:37.594Z,99.99
2019-01-05T08:08:37.604Z,99.99
2019-01-05T08:09:37.593Z,99.99
2019-01-05T08:10:37.589Z,99.99
2019-01-05T08:11:37.592Z,99.99
2019-01-05T08:12:37.592Z,99.99
2019-01-05T08:13:37.612Z,99.99
2019-01-05T08:14:37.591Z,99.99
2019-01-05T08:15:37.588Z,99.99
2019-01-05T08:16:37.589Z,99.99
2019-01-05T08:17:37.589Z,99.99
2019-01-05T08:18:37.626Z,99.99
2019-01-05T08:19:37.591Z,99.99
2019-01-05T08:20:37.589Z,99.99
2019-01-05T08:21:37.589Z,99.99
2019-01-05T08:22:37.590Z,99.99
2019-01-05T08:23:37.603Z,99.99
2019-01-05T08:24:37.591Z,99.99
2019-01-05T08:25:37.588Z,99.99
2019-01-05T08:26:37.593Z,99.99
2019-01-05T08:27:37.601Z,99.99
2019-01-05T08:28:37.602Z,99.99
2019-01-05T08:29:37.587Z,99.99
2019-01-05T08:30:37.589Z,99.99
2019-01-05T08:31:35.686Z,99.99
2019-01-05T08:33:05.675Z,99.99
2019-01-05T08:34:05.667Z,99.99
2019-01-05T08:35:05.642Z,99.99
2019-01-05T08:36:05.633Z,99.99
2019-01-05T08:37:05.620Z,99.99
2019-01-05T08:38:05.609Z,99.99
2019-01-05T08:39:05.612Z,99.99
2019-01-05T08:40:05.592Z,99.99
2019-01-05T08:41:05.578Z,99.99
2019-01-05T08:42:05.571Z,99.99
2019-01-05T08:43:05.561Z,99.99
2019-01-05T08:44:05.566Z,99.99
2019-01-05T08:45:05.535Z,99.99
2019-01-05T08:46:05.525Z,99.99
2019-01-05T08:47:05.534Z,99.99
2019-01-05T08:48:05.502Z,99.99
2019-01-05T08:49:05.514Z,99.99
